
<gpx xmlns="http://www.topografix.com/GPX/1/1" xmlns:gpxx="http://www.garmin.com/xmlschemas/GpxExtensions/v3" xmlns:xsi="http://www.w3.org/2001/XMLSchema-instance" version="1.1" creator="Adze - https://getadze.com/" xsi:schemaLocation="http://www.topografix.com/GPX/1/1 http://www.topografix.com/GPX/1/1/gpx.xsd http://www.garmin.com/xmlschemas/GpxExtensions/v3 http://www.garmin.com/xmlschemas/GpxExtensionsv3.xsd">
    <metadata>
        <name>Untitled Document</name>
        <link href="http://www.garmin.com"></link>
        <time>2018-03-08T03:42:46.951Z</time>
    </metadata>
    <wpt lon="99.680498" lat="12.899862">
        <ele>106.000000</ele>
        <name>Kaeng Krachan Resort</name>
        <cmt>20-FEB-09 15:07:44</cmt>
        <desc>20-FEB-09 15:07:44</desc>
        <sym>Lodge</sym>
        <extensions>
            <gpxx:WaypointExtension xmlns:gpxx="http://www.garmin.com/xmlschemas/GpxExtensions/v3">
                <gpxx:DisplayMode>SymbolOnly</gpxx:DisplayMode>
            </gpxx:WaypointExtension>
        </extensions>
    </wpt>
    <wpt lon="99.649205" lat="12.906329">
        <ele>59.000000</ele>
        <name>Febraury 2009 - Sunday water</name>
        <cmt>22-FEB-09 11:09:46</cmt>
        <desc>22-FEB-09 11:09:46</desc>
        <sym>Drinking Water</sym>
        <extensions>
            <gpxx:WaypointExtension xmlns:gpxx="http://www.garmin.com/xmlschemas/GpxExtensions/v3">
                <gpxx:DisplayMode>SymbolOnly</gpxx:DisplayMode>
            </gpxx:WaypointExtension>
        </extensions>
    </wpt>
    <trk>
        <name>Febraury 2009 - Sunday</name>
        <extensions>
            <gpxx:TrackExtension xmlns:gpxx="http://www.garmin.com/xmlschemas/GpxExtensions/v3">
                <gpxx:DisplayColor>Green</gpxx:DisplayColor>
            </gpxx:TrackExtension>
        </extensions>
        <trkseg>
            <trkpt lon="99.680421" lat="12.899908">
                <ele>103.479004</ele>
                <time>2009-02-22T02:53:31Z</time>
            </trkpt>
            <trkpt lon="99.680458" lat="12.899923">
                <ele>102.037109</ele>
                <time>2009-02-22T02:53:50Z</time>
            </trkpt>
            <trkpt lon="99.680467" lat="12.899928">
                <ele>102.037109</ele>
                <time>2009-02-22T02:53:52Z</time>
            </trkpt>
            <trkpt lon="99.680543" lat="12.900023">
                <ele>99.153076</ele>
                <time>2009-02-22T02:54:12Z</time>
            </trkpt>
            <trkpt lon="99.680537" lat="12.900018">
                <ele>98.191895</ele>
                <time>2009-02-22T02:55:42Z</time>
            </trkpt>
            <trkpt lon="99.680534" lat="12.900015">
                <ele>97.230469</ele>
                <time>2009-02-22T02:57:40Z</time>
            </trkpt>
            <trkpt lon="99.680539" lat="12.900037">
                <ele>102.998291</ele>
                <time>2009-02-22T02:59:31Z</time>
            </trkpt>
            <trkpt lon="99.680544" lat="12.900049">
                <ele>101.075684</ele>
                <time>2009-02-22T03:00:26Z</time>
            </trkpt>
            <trkpt lon="99.680899" lat="12.900201">
                <ele>100.114502</ele>
                <time>2009-02-22T03:00:40Z</time>
            </trkpt>
            <trkpt lon="99.681317" lat="12.900329">
                <ele>98.672485</ele>
                <time>2009-02-22T03:00:51Z</time>
            </trkpt>
            <trkpt lon="99.681297" lat="12.900473">
                <ele>97.711182</ele>
                <time>2009-02-22T03:00:56Z</time>
            </trkpt>
            <trkpt lon="99.681054" lat="12.901037">
                <ele>98.672485</ele>
                <time>2009-02-22T03:01:12Z</time>
            </trkpt>
            <trkpt lon="99.681117" lat="12.901164">
                <ele>98.191895</ele>
                <time>2009-02-22T03:01:16Z</time>
            </trkpt>
            <trkpt lon="99.681427" lat="12.901623">
                <ele>99.153076</ele>
                <time>2009-02-22T03:01:30Z</time>
            </trkpt>
            <trkpt lon="99.681531" lat="12.901999">
                <ele>98.672485</ele>
                <time>2009-02-22T03:01:38Z</time>
            </trkpt>
            <trkpt lon="99.681641" lat="12.902166">
                <ele>99.153076</ele>
                <time>2009-02-22T03:01:42Z</time>
            </trkpt>
            <trkpt lon="99.682522" lat="12.902968">
                <ele>95.307739</ele>
                <time>2009-02-22T03:02:04Z</time>
            </trkpt>
            <trkpt lon="99.682592" lat="12.903045">
                <ele>95.307739</ele>
                <time>2009-02-22T03:02:06Z</time>
            </trkpt>
            <trkpt lon="99.682749" lat="12.903176">
                <ele>95.307739</ele>
                <time>2009-02-22T03:02:10Z</time>
            </trkpt>
            <trkpt lon="99.682865" lat="12.903336">
                <ele>94.827148</ele>
                <time>2009-02-22T03:02:14Z</time>
            </trkpt>
            <trkpt lon="99.682968" lat="12.904009">
                <ele>95.788452</ele>
                <time>2009-02-22T03:02:28Z</time>
            </trkpt>
            <trkpt lon="99.682923" lat="12.904114">
                <ele>96.749878</ele>
                <time>2009-02-22T03:02:30Z</time>
            </trkpt>
            <trkpt lon="99.682979" lat="12.904364">
                <ele>97.230469</ele>
                <time>2009-02-22T03:02:35Z</time>
            </trkpt>
            <trkpt lon="99.683179" lat="12.905141">
                <ele>96.749878</ele>
                <time>2009-02-22T03:02:50Z</time>
            </trkpt>
            <trkpt lon="99.683440" lat="12.905575">
                <ele>96.749878</ele>
                <time>2009-02-22T03:02:59Z</time>
            </trkpt>
            <trkpt lon="99.683565" lat="12.905816">
                <ele>96.749878</ele>
                <time>2009-02-22T03:03:05Z</time>
            </trkpt>
            <trkpt lon="99.683312" lat="12.906196">
                <ele>95.788452</ele>
                <time>2009-02-22T03:03:13Z</time>
            </trkpt>
            <trkpt lon="99.683282" lat="12.906369">
                <ele>95.307739</ele>
                <time>2009-02-22T03:03:17Z</time>
            </trkpt>
            <trkpt lon="99.683393" lat="12.906611">
                <ele>95.788452</ele>
                <time>2009-02-22T03:03:23Z</time>
            </trkpt>
            <trkpt lon="99.683583" lat="12.906734">
                <ele>96.269287</ele>
                <time>2009-02-22T03:03:28Z</time>
            </trkpt>
            <trkpt lon="99.683624" lat="12.906836">
                <ele>96.749878</ele>
                <time>2009-02-22T03:03:32Z</time>
            </trkpt>
            <trkpt lon="99.683100" lat="12.907421">
                <ele>98.191895</ele>
                <time>2009-02-22T03:03:48Z</time>
            </trkpt>
            <trkpt lon="99.682521" lat="12.907668">
                <ele>98.672485</ele>
                <time>2009-02-22T03:04:03Z</time>
            </trkpt>
            <trkpt lon="99.681984" lat="12.907866">
                <ele>101.556397</ele>
                <time>2009-02-22T03:04:19Z</time>
            </trkpt>
            <trkpt lon="99.681384" lat="12.908650">
                <ele>105.401733</ele>
                <time>2009-02-22T03:04:47Z</time>
            </trkpt>
            <trkpt lon="99.681137" lat="12.908740">
                <ele>105.882446</ele>
                <time>2009-02-22T03:04:55Z</time>
            </trkpt>
            <trkpt lon="99.680561" lat="12.908465">
                <ele>105.882446</ele>
                <time>2009-02-22T03:05:08Z</time>
            </trkpt>
            <trkpt lon="99.679515" lat="12.907994">
                <ele>99.153076</ele>
                <time>2009-02-22T03:05:23Z</time>
            </trkpt>
            <trkpt lon="99.678541" lat="12.907907">
                <ele>94.827148</ele>
                <time>2009-02-22T03:05:34Z</time>
            </trkpt>
            <trkpt lon="99.677319" lat="12.908068">
                <ele>91.943237</ele>
                <time>2009-02-22T03:05:47Z</time>
            </trkpt>
            <trkpt lon="99.675816" lat="12.908586">
                <ele>85.694580</ele>
                <time>2009-02-22T03:06:03Z</time>
            </trkpt>
            <trkpt lon="99.674223" lat="12.909040">
                <ele>81.849365</ele>
                <time>2009-02-22T03:06:20Z</time>
            </trkpt>
            <trkpt lon="99.672832" lat="12.909554">
                <ele>80.888184</ele>
                <time>2009-02-22T03:06:38Z</time>
            </trkpt>
            <trkpt lon="99.672248" lat="12.909962">
                <ele>81.368774</ele>
                <time>2009-02-22T03:06:51Z</time>
            </trkpt>
            <trkpt lon="99.671725" lat="12.910792">
                <ele>79.446045</ele>
                <time>2009-02-22T03:07:08Z</time>
            </trkpt>
            <trkpt lon="99.670837" lat="12.911376">
                <ele>73.678223</ele>
                <time>2009-02-22T03:07:22Z</time>
            </trkpt>
            <trkpt lon="99.669719" lat="12.911581">
                <ele>71.274902</ele>
                <time>2009-02-22T03:07:35Z</time>
            </trkpt>
            <trkpt lon="99.669242" lat="12.911512">
                <ele>71.274902</ele>
                <time>2009-02-22T03:07:41Z</time>
            </trkpt>
            <trkpt lon="99.669139" lat="12.911577">
                <ele>71.755493</ele>
                <time>2009-02-22T03:07:45Z</time>
            </trkpt>
            <trkpt lon="99.669089" lat="12.912352">
                <ele>71.274902</ele>
                <time>2009-02-22T03:08:00Z</time>
            </trkpt>
            <trkpt lon="99.669079" lat="12.912692">
                <ele>71.274902</ele>
                <time>2009-02-22T03:08:12Z</time>
            </trkpt>
            <trkpt lon="99.669122" lat="12.913107">
                <ele>68.390869</ele>
                <time>2009-02-22T03:08:29Z</time>
            </trkpt>
            <trkpt lon="99.669128" lat="12.913811">
                <ele>70.313477</ele>
                <time>2009-02-22T03:08:49Z</time>
            </trkpt>
            <trkpt lon="99.669123" lat="12.914580">
                <ele>72.236206</ele>
                <time>2009-02-22T03:09:10Z</time>
            </trkpt>
            <trkpt lon="99.669125" lat="12.915404">
                <ele>78.004028</ele>
                <time>2009-02-22T03:09:32Z</time>
            </trkpt>
            <trkpt lon="99.669119" lat="12.916082">
                <ele>82.330078</ele>
                <time>2009-02-22T03:09:52Z</time>
            </trkpt>
            <trkpt lon="99.669123" lat="12.916590">
                <ele>85.213989</ele>
                <time>2009-02-22T03:10:09Z</time>
            </trkpt>
            <trkpt lon="99.669110" lat="12.917271">
                <ele>88.098022</ele>
                <time>2009-02-22T03:10:28Z</time>
            </trkpt>
            <trkpt lon="99.669139" lat="12.917763">
                <ele>91.462524</ele>
                <time>2009-02-22T03:10:45Z</time>
            </trkpt>
            <trkpt lon="99.669338" lat="12.918337">
                <ele>94.827148</ele>
                <time>2009-02-22T03:11:06Z</time>
            </trkpt>
            <trkpt lon="99.669660" lat="12.918815">
                <ele>96.749878</ele>
                <time>2009-02-22T03:11:25Z</time>
            </trkpt>
            <trkpt lon="99.669823" lat="12.919196">
                <ele>97.711182</ele>
                <time>2009-02-22T03:11:38Z</time>
            </trkpt>
            <trkpt lon="99.669889" lat="12.919545">
                <ele>99.153076</ele>
                <time>2009-02-22T03:11:56Z</time>
            </trkpt>
            <trkpt lon="99.669912" lat="12.919774">
                <ele>101.075684</ele>
                <time>2009-02-22T03:12:09Z</time>
            </trkpt>
            <trkpt lon="99.669961" lat="12.919813">
                <ele>101.075684</ele>
                <time>2009-02-22T03:12:13Z</time>
            </trkpt>
            <trkpt lon="99.669970" lat="12.919887">
                <ele>101.556397</ele>
                <time>2009-02-22T03:12:17Z</time>
            </trkpt>
            <trkpt lon="99.669999" lat="12.920380">
                <ele>103.959717</ele>
                <time>2009-02-22T03:12:35Z</time>
            </trkpt>
            <trkpt lon="99.669870" lat="12.920656">
                <ele>102.517700</ele>
                <time>2009-02-22T03:12:46Z</time>
            </trkpt>
            <trkpt lon="99.669524" lat="12.920727">
                <ele>102.998291</ele>
                <time>2009-02-22T03:12:58Z</time>
            </trkpt>
            <trkpt lon="99.669047" lat="12.920750">
                <ele>100.595093</ele>
                <time>2009-02-22T03:13:11Z</time>
            </trkpt>
            <trkpt lon="99.668785" lat="12.920865">
                <ele>100.114502</ele>
                <time>2009-02-22T03:13:21Z</time>
            </trkpt>
            <trkpt lon="99.668390" lat="12.921047">
                <ele>101.556397</ele>
                <time>2009-02-22T03:13:34Z</time>
            </trkpt>
            <trkpt lon="99.668263" lat="12.921057">
                <ele>101.075684</ele>
                <time>2009-02-22T03:13:39Z</time>
            </trkpt>
            <trkpt lon="99.668152" lat="12.920733">
                <ele>97.711182</ele>
                <time>2009-02-22T03:13:49Z</time>
            </trkpt>
            <trkpt lon="99.667995" lat="12.920278">
                <ele>93.865845</ele>
                <time>2009-02-22T03:14:00Z</time>
            </trkpt>
            <trkpt lon="99.667685" lat="12.920316">
                <ele>93.385132</ele>
                <time>2009-02-22T03:14:10Z</time>
            </trkpt>
            <trkpt lon="99.667497" lat="12.920364">
                <ele>92.423950</ele>
                <time>2009-02-22T03:14:15Z</time>
            </trkpt>
            <trkpt lon="99.667364" lat="12.920249">
                <ele>91.462524</ele>
                <time>2009-02-22T03:14:20Z</time>
            </trkpt>
            <trkpt lon="99.667079" lat="12.919843">
                <ele>87.617188</ele>
                <time>2009-02-22T03:14:33Z</time>
            </trkpt>
            <trkpt lon="99.666905" lat="12.919763">
                <ele>87.136597</ele>
                <time>2009-02-22T03:14:39Z</time>
            </trkpt>
            <trkpt lon="99.666784" lat="12.919627">
                <ele>86.656006</ele>
                <time>2009-02-22T03:14:44Z</time>
            </trkpt>
            <trkpt lon="99.666124" lat="12.919536">
                <ele>84.733398</ele>
                <time>2009-02-22T03:15:02Z</time>
            </trkpt>
            <trkpt lon="99.665438" lat="12.919448">
                <ele>82.330078</ele>
                <time>2009-02-22T03:15:16Z</time>
            </trkpt>
            <trkpt lon="99.664605" lat="12.919372">
                <ele>82.810791</ele>
                <time>2009-02-22T03:15:34Z</time>
            </trkpt>
            <trkpt lon="99.664564" lat="12.919388">
                <ele>83.291382</ele>
                <time>2009-02-22T03:15:42Z</time>
            </trkpt>
            <trkpt lon="99.664555" lat="12.919372">
                <ele>83.291382</ele>
                <time>2009-02-22T03:15:44Z</time>
            </trkpt>
            <trkpt lon="99.664507" lat="12.919349">
                <ele>83.291382</ele>
                <time>2009-02-22T03:16:01Z</time>
            </trkpt>
            <trkpt lon="99.664506" lat="12.919342">
                <ele>82.810791</ele>
                <time>2009-02-22T03:16:18Z</time>
            </trkpt>
            <trkpt lon="99.664506" lat="12.919319">
                <ele>82.330078</ele>
                <time>2009-02-22T03:16:39Z</time>
            </trkpt>
            <trkpt lon="99.664507" lat="12.919315">
                <ele>82.330078</ele>
                <time>2009-02-22T03:17:14Z</time>
            </trkpt>
            <trkpt lon="99.664571" lat="12.918992">
                <ele>80.888184</ele>
                <time>2009-02-22T03:17:25Z</time>
            </trkpt>
            <trkpt lon="99.664591" lat="12.918028">
                <ele>77.042847</ele>
                <time>2009-02-22T03:17:42Z</time>
            </trkpt>
            <trkpt lon="99.664571" lat="12.916705">
                <ele>72.716919</ele>
                <time>2009-02-22T03:18:02Z</time>
            </trkpt>
            <trkpt lon="99.664466" lat="12.916326">
                <ele>71.274902</ele>
                <time>2009-02-22T03:18:12Z</time>
            </trkpt>
            <trkpt lon="99.664292" lat="12.916334">
                <ele>70.313477</ele>
                <time>2009-02-22T03:18:17Z</time>
            </trkpt>
            <trkpt lon="99.664210" lat="12.916315">
                <ele>69.352295</ele>
                <time>2009-02-22T03:18:19Z</time>
            </trkpt>
            <trkpt lon="99.663902" lat="12.916197">
                <ele>66.468262</ele>
                <time>2009-02-22T03:18:26Z</time>
            </trkpt>
            <trkpt lon="99.663739" lat="12.916070">
                <ele>68.390869</ele>
                <time>2009-02-22T03:18:33Z</time>
            </trkpt>
            <trkpt lon="99.663644" lat="12.915976">
                <ele>67.429688</ele>
                <time>2009-02-22T03:18:37Z</time>
            </trkpt>
            <trkpt lon="99.663417" lat="12.915886">
                <ele>68.871582</ele>
                <time>2009-02-22T03:18:44Z</time>
            </trkpt>
            <trkpt lon="99.662999" lat="12.915878">
                <ele>69.352295</ele>
                <time>2009-02-22T03:18:56Z</time>
            </trkpt>
            <trkpt lon="99.662967" lat="12.915878">
                <ele>68.871582</ele>
                <time>2009-02-22T03:18:57Z</time>
            </trkpt>
            <trkpt lon="99.662881" lat="12.915779">
                <ele>68.871582</ele>
                <time>2009-02-22T03:19:01Z</time>
            </trkpt>
            <trkpt lon="99.662804" lat="12.915572">
                <ele>67.910278</ele>
                <time>2009-02-22T03:19:06Z</time>
            </trkpt>
            <trkpt lon="99.662694" lat="12.915414">
                <ele>67.429688</ele>
                <time>2009-02-22T03:19:10Z</time>
            </trkpt>
            <trkpt lon="99.662556" lat="12.915311">
                <ele>66.948975</ele>
                <time>2009-02-22T03:19:14Z</time>
            </trkpt>
            <trkpt lon="99.662242" lat="12.915119">
                <ele>65.026367</ele>
                <time>2009-02-22T03:19:25Z</time>
            </trkpt>
            <trkpt lon="99.661959" lat="12.915026">
                <ele>65.507080</ele>
                <time>2009-02-22T03:19:35Z</time>
            </trkpt>
            <trkpt lon="99.661853" lat="12.915062">
                <ele>65.507080</ele>
                <time>2009-02-22T03:19:39Z</time>
            </trkpt>
            <trkpt lon="99.661393" lat="12.914969">
                <ele>65.987671</ele>
                <time>2009-02-22T03:19:52Z</time>
            </trkpt>
            <trkpt lon="99.661162" lat="12.914839">
                <ele>65.987671</ele>
                <time>2009-02-22T03:19:58Z</time>
            </trkpt>
            <trkpt lon="99.661120" lat="12.914773">
                <ele>65.507080</ele>
                <time>2009-02-22T03:20:00Z</time>
            </trkpt>
            <trkpt lon="99.660873" lat="12.914439">
                <ele>65.026367</ele>
                <time>2009-02-22T03:20:09Z</time>
            </trkpt>
            <trkpt lon="99.660225" lat="12.914303">
                <ele>64.065063</ele>
                <time>2009-02-22T03:20:22Z</time>
            </trkpt>
            <trkpt lon="99.660027" lat="12.914324">
                <ele>63.584351</ele>
                <time>2009-02-22T03:20:26Z</time>
            </trkpt>
            <trkpt lon="99.659804" lat="12.914438">
                <ele>64.065063</ele>
                <time>2009-02-22T03:20:31Z</time>
            </trkpt>
            <trkpt lon="99.659691" lat="12.914586">
                <ele>64.545654</ele>
                <time>2009-02-22T03:20:35Z</time>
            </trkpt>
            <trkpt lon="99.659692" lat="12.914690">
                <ele>65.507080</ele>
                <time>2009-02-22T03:20:44Z</time>
            </trkpt>
            <trkpt lon="99.659678" lat="12.914524">
                <ele>63.584351</ele>
                <time>2009-02-22T03:20:55Z</time>
            </trkpt>
            <trkpt lon="99.659987" lat="12.914352">
                <ele>60.700317</ele>
                <time>2009-02-22T03:21:09Z</time>
            </trkpt>
            <trkpt lon="99.659946" lat="12.914287">
                <ele>61.181030</ele>
                <time>2009-02-22T03:21:14Z</time>
            </trkpt>
            <trkpt lon="99.659281" lat="12.914059">
                <ele>62.142334</ele>
                <time>2009-02-22T03:21:34Z</time>
            </trkpt>
            <trkpt lon="99.658870" lat="12.914106">
                <ele>63.584351</ele>
                <time>2009-02-22T03:21:43Z</time>
            </trkpt>
            <trkpt lon="99.658307" lat="12.914239">
                <ele>63.103638</ele>
                <time>2009-02-22T03:21:55Z</time>
            </trkpt>
            <trkpt lon="99.657882" lat="12.914218">
                <ele>62.622925</ele>
                <time>2009-02-22T03:22:08Z</time>
            </trkpt>
            <trkpt lon="99.657850" lat="12.914243">
                <ele>60.219727</ele>
                <time>2009-02-22T03:23:20Z</time>
            </trkpt>
            <trkpt lon="99.657820" lat="12.914221">
                <ele>58.777710</ele>
                <time>2009-02-22T03:25:45Z</time>
            </trkpt>
            <trkpt lon="99.657836" lat="12.914291">
                <ele>58.777710</ele>
                <time>2009-02-22T03:25:52Z</time>
            </trkpt>
            <trkpt lon="99.657867" lat="12.914306">
                <ele>58.777710</ele>
                <time>2009-02-22T03:25:54Z</time>
            </trkpt>
            <trkpt lon="99.657883" lat="12.914330">
                <ele>58.777710</ele>
                <time>2009-02-22T03:25:56Z</time>
            </trkpt>
            <trkpt lon="99.657905" lat="12.914350">
                <ele>59.258423</ele>
                <time>2009-02-22T03:26:15Z</time>
            </trkpt>
            <trkpt lon="99.657889" lat="12.914337">
                <ele>62.622925</ele>
                <time>2009-02-22T03:26:39Z</time>
            </trkpt>
            <trkpt lon="99.657779" lat="12.914275">
                <ele>62.622925</ele>
                <time>2009-02-22T03:26:46Z</time>
            </trkpt>
            <trkpt lon="99.657370" lat="12.914211">
                <ele>61.661743</ele>
                <time>2009-02-22T03:27:03Z</time>
            </trkpt>
            <trkpt lon="99.657016" lat="12.914174">
                <ele>61.661743</ele>
                <time>2009-02-22T03:27:16Z</time>
            </trkpt>
            <trkpt lon="99.656658" lat="12.913964">
                <ele>61.181030</ele>
                <time>2009-02-22T03:27:29Z</time>
            </trkpt>
            <trkpt lon="99.656351" lat="12.913797">
                <ele>62.142334</ele>
                <time>2009-02-22T03:27:41Z</time>
            </trkpt>
            <trkpt lon="99.656300" lat="12.913779">
                <ele>62.622925</ele>
                <time>2009-02-22T03:27:43Z</time>
            </trkpt>
            <trkpt lon="99.656199" lat="12.913766">
                <ele>63.584351</ele>
                <time>2009-02-22T03:27:47Z</time>
            </trkpt>
            <trkpt lon="99.655700" lat="12.913788">
                <ele>64.065063</ele>
                <time>2009-02-22T03:28:05Z</time>
            </trkpt>
            <trkpt lon="99.655330" lat="12.913832">
                <ele>65.026367</ele>
                <time>2009-02-22T03:28:20Z</time>
            </trkpt>
            <trkpt lon="99.654949" lat="12.913783">
                <ele>63.103638</ele>
                <time>2009-02-22T03:28:33Z</time>
            </trkpt>
            <trkpt lon="99.654568" lat="12.913851">
                <ele>63.103638</ele>
                <time>2009-02-22T03:28:42Z</time>
            </trkpt>
            <trkpt lon="99.654483" lat="12.913870">
                <ele>63.584351</ele>
                <time>2009-02-22T03:28:44Z</time>
            </trkpt>
            <trkpt lon="99.654333" lat="12.913925">
                <ele>63.584351</ele>
                <time>2009-02-22T03:28:48Z</time>
            </trkpt>
            <trkpt lon="99.653457" lat="12.914260">
                <ele>60.700317</ele>
                <time>2009-02-22T03:29:07Z</time>
            </trkpt>
            <trkpt lon="99.653407" lat="12.914274">
                <ele>60.700317</ele>
                <time>2009-02-22T03:29:08Z</time>
            </trkpt>
            <trkpt lon="99.653170" lat="12.914219">
                <ele>60.219727</ele>
                <time>2009-02-22T03:29:14Z</time>
            </trkpt>
            <trkpt lon="99.652908" lat="12.913970">
                <ele>60.219727</ele>
                <time>2009-02-22T03:29:21Z</time>
            </trkpt>
            <trkpt lon="99.652705" lat="12.913946">
                <ele>60.700317</ele>
                <time>2009-02-22T03:29:25Z</time>
            </trkpt>
            <trkpt lon="99.652541" lat="12.913962">
                <ele>61.181030</ele>
                <time>2009-02-22T03:29:28Z</time>
            </trkpt>
            <trkpt lon="99.651986" lat="12.913934">
                <ele>61.661743</ele>
                <time>2009-02-22T03:29:43Z</time>
            </trkpt>
            <trkpt lon="99.651510" lat="12.913930">
                <ele>65.507080</ele>
                <time>2009-02-22T03:30:00Z</time>
            </trkpt>
            <trkpt lon="99.651160" lat="12.913925">
                <ele>65.507080</ele>
                <time>2009-02-22T03:30:14Z</time>
            </trkpt>
            <trkpt lon="99.651087" lat="12.913921">
                <ele>65.987671</ele>
                <time>2009-02-22T03:30:27Z</time>
            </trkpt>
            <trkpt lon="99.650966" lat="12.913932">
                <ele>69.352295</ele>
                <time>2009-02-22T03:30:52Z</time>
            </trkpt>
            <trkpt lon="99.650864" lat="12.913829">
                <ele>69.352295</ele>
                <time>2009-02-22T03:31:01Z</time>
            </trkpt>
            <trkpt lon="99.650853" lat="12.913326">
                <ele>70.313477</ele>
                <time>2009-02-22T03:31:18Z</time>
            </trkpt>
            <trkpt lon="99.650931" lat="12.913168">
                <ele>71.755493</ele>
                <time>2009-02-22T03:31:22Z</time>
            </trkpt>
            <trkpt lon="99.650935" lat="12.913045">
                <ele>72.236206</ele>
                <time>2009-02-22T03:31:25Z</time>
            </trkpt>
            <trkpt lon="99.650940" lat="12.912097">
                <ele>71.274902</ele>
                <time>2009-02-22T03:31:44Z</time>
            </trkpt>
            <trkpt lon="99.650927" lat="12.911909">
                <ele>70.794190</ele>
                <time>2009-02-22T03:31:47Z</time>
            </trkpt>
            <trkpt lon="99.651042" lat="12.911587">
                <ele>69.832886</ele>
                <time>2009-02-22T03:31:52Z</time>
            </trkpt>
            <trkpt lon="99.651172" lat="12.911197">
                <ele>69.832886</ele>
                <time>2009-02-22T03:31:59Z</time>
            </trkpt>
            <trkpt lon="99.651112" lat="12.910881">
                <ele>69.832886</ele>
                <time>2009-02-22T03:32:06Z</time>
            </trkpt>
            <trkpt lon="99.650907" lat="12.910409">
                <ele>71.755493</ele>
                <time>2009-02-22T03:32:20Z</time>
            </trkpt>
            <trkpt lon="99.651107" lat="12.910063">
                <ele>72.716919</ele>
                <time>2009-02-22T03:32:34Z</time>
            </trkpt>
            <trkpt lon="99.651254" lat="12.909583">
                <ele>72.716919</ele>
                <time>2009-02-22T03:32:51Z</time>
            </trkpt>
            <trkpt lon="99.651714" lat="12.908148">
                <ele>66.468262</ele>
                <time>2009-02-22T03:33:18Z</time>
            </trkpt>
            <trkpt lon="99.652037" lat="12.907440">
                <ele>60.700317</ele>
                <time>2009-02-22T03:33:31Z</time>
            </trkpt>
            <trkpt lon="99.652070" lat="12.907376">
                <ele>59.739136</ele>
                <time>2009-02-22T03:33:33Z</time>
            </trkpt>
            <trkpt lon="99.652033" lat="12.907163">
                <ele>58.777710</ele>
                <time>2009-02-22T03:33:38Z</time>
            </trkpt>
            <trkpt lon="99.651565" lat="12.906665">
                <ele>59.258423</ele>
                <time>2009-02-22T03:33:54Z</time>
            </trkpt>
            <trkpt lon="99.650805" lat="12.906389">
                <ele>58.297119</ele>
                <time>2009-02-22T03:34:12Z</time>
            </trkpt>
            <trkpt lon="99.649868" lat="12.906382">
                <ele>58.297119</ele>
                <time>2009-02-22T03:34:31Z</time>
            </trkpt>
            <trkpt lon="99.649401" lat="12.906304">
                <ele>58.777710</ele>
                <time>2009-02-22T03:34:43Z</time>
            </trkpt>
            <trkpt lon="99.649257" lat="12.906312">
                <ele>58.777710</ele>
                <time>2009-02-22T03:34:49Z</time>
            </trkpt>
            <trkpt lon="99.649254" lat="12.906304">
                <ele>59.739136</ele>
                <time>2009-02-22T03:35:13Z</time>
            </trkpt>
            <trkpt lon="99.649252" lat="12.906296">
                <ele>60.700317</ele>
                <time>2009-02-22T03:35:36Z</time>
            </trkpt>
            <trkpt lon="99.648971" lat="12.906372">
                <ele>60.700317</ele>
                <time>2009-02-22T03:35:48Z</time>
            </trkpt>
            <trkpt lon="99.648289" lat="12.906438">
                <ele>60.219727</ele>
                <time>2009-02-22T03:36:04Z</time>
            </trkpt>
            <trkpt lon="99.647246" lat="12.906771">
                <ele>58.297119</ele>
                <time>2009-02-22T03:36:24Z</time>
            </trkpt>
            <trkpt lon="99.646436" lat="12.907327">
                <ele>57.335815</ele>
                <time>2009-02-22T03:36:41Z</time>
            </trkpt>
            <trkpt lon="99.645529" lat="12.907989">
                <ele>56.374512</ele>
                <time>2009-02-22T03:37:01Z</time>
            </trkpt>
            <trkpt lon="99.643636" lat="12.909266">
                <ele>57.816528</ele>
                <time>2009-02-22T03:37:40Z</time>
            </trkpt>
            <trkpt lon="99.642722" lat="12.909925">
                <ele>56.855103</ele>
                <time>2009-02-22T03:38:00Z</time>
            </trkpt>
            <trkpt lon="99.642032" lat="12.910600">
                <ele>54.451782</ele>
                <time>2009-02-22T03:38:16Z</time>
            </trkpt>
            <trkpt lon="99.641295" lat="12.911568">
                <ele>54.451782</ele>
                <time>2009-02-22T03:38:37Z</time>
            </trkpt>
            <trkpt lon="99.641196" lat="12.911721">
                <ele>54.932373</ele>
                <time>2009-02-22T03:38:41Z</time>
            </trkpt>
            <trkpt lon="99.640754" lat="12.912476">
                <ele>54.932373</ele>
                <time>2009-02-22T03:39:02Z</time>
            </trkpt>
            <trkpt lon="99.640407" lat="12.913098">
                <ele>54.932373</ele>
                <time>2009-02-22T03:39:19Z</time>
            </trkpt>
            <trkpt lon="99.640354" lat="12.913219">
                <ele>54.932373</ele>
                <time>2009-02-22T03:39:22Z</time>
            </trkpt>
            <trkpt lon="99.639780" lat="12.913884">
                <ele>56.374512</ele>
                <time>2009-02-22T03:39:42Z</time>
            </trkpt>
            <trkpt lon="99.639500" lat="12.914044">
                <ele>60.700317</ele>
                <time>2009-02-22T03:39:55Z</time>
            </trkpt>
            <trkpt lon="99.639065" lat="12.914313">
                <ele>63.103638</ele>
                <time>2009-02-22T03:40:14Z</time>
            </trkpt>
            <trkpt lon="99.638612" lat="12.914584">
                <ele>63.103638</ele>
                <time>2009-02-22T03:40:28Z</time>
            </trkpt>
            <trkpt lon="99.638490" lat="12.914620">
                <ele>62.622925</ele>
                <time>2009-02-22T03:40:30Z</time>
            </trkpt>
            <trkpt lon="99.637497" lat="12.914961">
                <ele>58.297119</ele>
                <time>2009-02-22T03:40:43Z</time>
            </trkpt>
            <trkpt lon="99.637139" lat="12.915095">
                <ele>57.335815</ele>
                <time>2009-02-22T03:40:48Z</time>
            </trkpt>
            <trkpt lon="99.636504" lat="12.915712">
                <ele>56.374512</ele>
                <time>2009-02-22T03:41:02Z</time>
            </trkpt>
            <trkpt lon="99.635768" lat="12.916696">
                <ele>57.335815</ele>
                <time>2009-02-22T03:41:23Z</time>
            </trkpt>
            <trkpt lon="99.635032" lat="12.917606">
                <ele>57.816528</ele>
                <time>2009-02-22T03:41:45Z</time>
            </trkpt>
            <trkpt lon="99.634632" lat="12.918357">
                <ele>58.297119</ele>
                <time>2009-02-22T03:42:04Z</time>
            </trkpt>
            <trkpt lon="99.634399" lat="12.919803">
                <ele>61.661743</ele>
                <time>2009-02-22T03:42:37Z</time>
            </trkpt>
            <trkpt lon="99.634160" lat="12.920033">
                <ele>66.948975</ele>
                <time>2009-02-22T03:42:55Z</time>
            </trkpt>
            <trkpt lon="99.633867" lat="12.920177">
                <ele>70.313477</ele>
                <time>2009-02-22T03:43:11Z</time>
            </trkpt>
            <trkpt lon="99.633704" lat="12.920211">
                <ele>72.236206</ele>
                <time>2009-02-22T03:43:19Z</time>
            </trkpt>
            <trkpt lon="99.633620" lat="12.920251">
                <ele>73.197632</ele>
                <time>2009-02-22T03:43:25Z</time>
            </trkpt>
            <trkpt lon="99.633262" lat="12.920227">
                <ele>78.965454</ele>
                <time>2009-02-22T03:43:46Z</time>
            </trkpt>
            <trkpt lon="99.632983" lat="12.920161">
                <ele>85.213989</ele>
                <time>2009-02-22T03:44:03Z</time>
            </trkpt>
            <trkpt lon="99.632950" lat="12.920158">
                <ele>86.175293</ele>
                <time>2009-02-22T03:44:05Z</time>
            </trkpt>
            <trkpt lon="99.632713" lat="12.920096">
                <ele>91.462524</ele>
                <time>2009-02-22T03:44:20Z</time>
            </trkpt>
            <trkpt lon="99.632474" lat="12.920045">
                <ele>94.827148</ele>
                <time>2009-02-22T03:44:35Z</time>
            </trkpt>
            <trkpt lon="99.632179" lat="12.919985">
                <ele>99.633789</ele>
                <time>2009-02-22T03:44:52Z</time>
            </trkpt>
            <trkpt lon="99.631884" lat="12.919911">
                <ele>100.595093</ele>
                <time>2009-02-22T03:45:09Z</time>
            </trkpt>
            <trkpt lon="99.631621" lat="12.919641">
                <ele>101.075684</ele>
                <time>2009-02-22T03:45:27Z</time>
            </trkpt>
            <trkpt lon="99.631573" lat="12.919579">
                <ele>101.556397</ele>
                <time>2009-02-22T03:45:42Z</time>
            </trkpt>
            <trkpt lon="99.631562" lat="12.919563">
                <ele>102.517700</ele>
                <time>2009-02-22T03:46:16Z</time>
            </trkpt>
            <trkpt lon="99.631377" lat="12.919228">
                <ele>102.037109</ele>
                <time>2009-02-22T03:46:31Z</time>
            </trkpt>
            <trkpt lon="99.631191" lat="12.918895">
                <ele>101.556397</ele>
                <time>2009-02-22T03:46:44Z</time>
            </trkpt>
            <trkpt lon="99.630706" lat="12.918107">
                <ele>101.556397</ele>
                <time>2009-02-22T03:47:07Z</time>
            </trkpt>
            <trkpt lon="99.630125" lat="12.917225">
                <ele>101.556397</ele>
                <time>2009-02-22T03:47:31Z</time>
            </trkpt>
            <trkpt lon="99.629700" lat="12.916519">
                <ele>102.037109</ele>
                <time>2009-02-22T03:47:50Z</time>
            </trkpt>
            <trkpt lon="99.629247" lat="12.915774">
                <ele>102.037109</ele>
                <time>2009-02-22T03:48:10Z</time>
            </trkpt>
            <trkpt lon="99.628744" lat="12.914972">
                <ele>101.556397</ele>
                <time>2009-02-22T03:48:31Z</time>
            </trkpt>
            <trkpt lon="99.628205" lat="12.914143">
                <ele>101.075684</ele>
                <time>2009-02-22T03:48:52Z</time>
            </trkpt>
            <trkpt lon="99.627913" lat="12.914065">
                <ele>101.075684</ele>
                <time>2009-02-22T03:48:59Z</time>
            </trkpt>
            <trkpt lon="99.627617" lat="12.914137">
                <ele>101.556397</ele>
                <time>2009-02-22T03:49:05Z</time>
            </trkpt>
            <trkpt lon="99.627072" lat="12.914648">
                <ele>102.517700</ele>
                <time>2009-02-22T03:49:26Z</time>
            </trkpt>
            <trkpt lon="99.626890" lat="12.914847">
                <ele>104.440430</ele>
                <time>2009-02-22T03:49:36Z</time>
            </trkpt>
            <trkpt lon="99.626565" lat="12.915052">
                <ele>105.882446</ele>
                <time>2009-02-22T03:49:51Z</time>
            </trkpt>
            <trkpt lon="99.626171" lat="12.915001">
                <ele>105.882446</ele>
                <time>2009-02-22T03:50:00Z</time>
            </trkpt>
            <trkpt lon="99.625875" lat="12.915029">
                <ele>107.324341</ele>
                <time>2009-02-22T03:50:07Z</time>
            </trkpt>
            <trkpt lon="99.625855" lat="12.914882">
                <ele>105.882446</ele>
                <time>2009-02-22T03:50:11Z</time>
            </trkpt>
            <trkpt lon="99.625792" lat="12.914684">
                <ele>105.401733</ele>
                <time>2009-02-22T03:50:16Z</time>
            </trkpt>
            <trkpt lon="99.625698" lat="12.914140">
                <ele>105.882446</ele>
                <time>2009-02-22T03:50:33Z</time>
            </trkpt>
            <trkpt lon="99.625934" lat="12.913782">
                <ele>104.921020</ele>
                <time>2009-02-22T03:50:45Z</time>
            </trkpt>
            <trkpt lon="99.626497" lat="12.913355">
                <ele>103.959717</ele>
                <time>2009-02-22T03:51:02Z</time>
            </trkpt>
            <trkpt lon="99.626606" lat="12.912956">
                <ele>104.440430</ele>
                <time>2009-02-22T03:51:11Z</time>
            </trkpt>
            <trkpt lon="99.626937" lat="12.912735">
                <ele>103.959717</ele>
                <time>2009-02-22T03:51:19Z</time>
            </trkpt>
            <trkpt lon="99.627589" lat="12.912692">
                <ele>103.479004</ele>
                <time>2009-02-22T03:51:33Z</time>
            </trkpt>
            <trkpt lon="99.627635" lat="12.912679">
                <ele>103.479004</ele>
                <time>2009-02-22T03:51:34Z</time>
            </trkpt>
            <trkpt lon="99.627800" lat="12.912510">
                <ele>102.998291</ele>
                <time>2009-02-22T03:51:38Z</time>
            </trkpt>
            <trkpt lon="99.628221" lat="12.911609">
                <ele>102.517700</ele>
                <time>2009-02-22T03:51:57Z</time>
            </trkpt>
            <trkpt lon="99.628633" lat="12.910610">
                <ele>102.037109</ele>
                <time>2009-02-22T03:52:18Z</time>
            </trkpt>
            <trkpt lon="99.628851" lat="12.910024">
                <ele>101.556397</ele>
                <time>2009-02-22T03:52:30Z</time>
            </trkpt>
            <trkpt lon="99.628820" lat="12.909819">
                <ele>101.075684</ele>
                <time>2009-02-22T03:52:34Z</time>
            </trkpt>
            <trkpt lon="99.628647" lat="12.909508">
                <ele>101.556397</ele>
                <time>2009-02-22T03:52:41Z</time>
            </trkpt>
            <trkpt lon="99.628784" lat="12.909198">
                <ele>100.595093</ele>
                <time>2009-02-22T03:52:48Z</time>
            </trkpt>
            <trkpt lon="99.628882" lat="12.909110">
                <ele>99.633789</ele>
                <time>2009-02-22T03:52:50Z</time>
            </trkpt>
            <trkpt lon="99.629103" lat="12.909008">
                <ele>97.711182</ele>
                <time>2009-02-22T03:52:54Z</time>
            </trkpt>
            <trkpt lon="99.629240" lat="12.908739">
                <ele>96.749878</ele>
                <time>2009-02-22T03:52:59Z</time>
            </trkpt>
            <trkpt lon="99.629321" lat="12.908030">
                <ele>95.307739</ele>
                <time>2009-02-22T03:53:11Z</time>
            </trkpt>
            <trkpt lon="99.629295" lat="12.907897">
                <ele>95.307739</ele>
                <time>2009-02-22T03:53:14Z</time>
            </trkpt>
            <trkpt lon="99.629234" lat="12.907822">
                <ele>96.269287</ele>
                <time>2009-02-22T03:53:19Z</time>
            </trkpt>
            <trkpt lon="99.629208" lat="12.907754">
                <ele>96.749878</ele>
                <time>2009-02-22T03:53:23Z</time>
            </trkpt>
            <trkpt lon="99.629370" lat="12.907407">
                <ele>98.191895</ele>
                <time>2009-02-22T03:53:42Z</time>
            </trkpt>
            <trkpt lon="99.629739" lat="12.906847">
                <ele>99.153076</ele>
                <time>2009-02-22T03:54:01Z</time>
            </trkpt>
            <trkpt lon="99.630158" lat="12.906489">
                <ele>99.633789</ele>
                <time>2009-02-22T03:54:16Z</time>
            </trkpt>
            <trkpt lon="99.630374" lat="12.906483">
                <ele>98.672485</ele>
                <time>2009-02-22T03:54:21Z</time>
            </trkpt>
            <trkpt lon="99.630624" lat="12.906402">
                <ele>98.672485</ele>
                <time>2009-02-22T03:54:27Z</time>
            </trkpt>
            <trkpt lon="99.631187" lat="12.905900">
                <ele>99.153076</ele>
                <time>2009-02-22T03:54:42Z</time>
            </trkpt>
            <trkpt lon="99.631560" lat="12.905578">
                <ele>96.749878</ele>
                <time>2009-02-22T03:54:53Z</time>
            </trkpt>
            <trkpt lon="99.631833" lat="12.905074">
                <ele>97.230469</ele>
                <time>2009-02-22T03:55:08Z</time>
            </trkpt>
            <trkpt lon="99.632161" lat="12.904358">
                <ele>97.711182</ele>
                <time>2009-02-22T03:55:27Z</time>
            </trkpt>
            <trkpt lon="99.632496" lat="12.903653">
                <ele>97.711182</ele>
                <time>2009-02-22T03:55:47Z</time>
            </trkpt>
            <trkpt lon="99.632545" lat="12.903609">
                <ele>97.711182</ele>
                <time>2009-02-22T03:55:52Z</time>
            </trkpt>
            <trkpt lon="99.632579" lat="12.903620">
                <ele>99.153076</ele>
                <time>2009-02-22T03:56:08Z</time>
            </trkpt>
            <trkpt lon="99.632614" lat="12.903626">
                <ele>99.153076</ele>
                <time>2009-02-22T03:56:25Z</time>
            </trkpt>
            <trkpt lon="99.632783" lat="12.903564">
                <ele>100.114502</ele>
                <time>2009-02-22T03:56:37Z</time>
            </trkpt>
            <trkpt lon="99.632891" lat="12.903550">
                <ele>99.633789</ele>
                <time>2009-02-22T03:56:40Z</time>
            </trkpt>
            <trkpt lon="99.633001" lat="12.903805">
                <ele>93.865845</ele>
                <time>2009-02-22T03:56:46Z</time>
            </trkpt>
            <trkpt lon="99.632586" lat="12.904879">
                <ele>89.539917</ele>
                <time>2009-02-22T03:56:58Z</time>
            </trkpt>
            <trkpt lon="99.632488" lat="12.905440">
                <ele>86.175293</ele>
                <time>2009-02-22T03:57:04Z</time>
            </trkpt>
            <trkpt lon="99.632756" lat="12.905985">
                <ele>82.330078</ele>
                <time>2009-02-22T03:57:12Z</time>
            </trkpt>
            <trkpt lon="99.632897" lat="12.906037">
                <ele>81.849365</ele>
                <time>2009-02-22T03:57:14Z</time>
            </trkpt>
            <trkpt lon="99.633400" lat="12.906107">
                <ele>81.368774</ele>
                <time>2009-02-22T03:57:21Z</time>
            </trkpt>
            <trkpt lon="99.634255" lat="12.906505">
                <ele>78.004028</ele>
                <time>2009-02-22T03:57:34Z</time>
            </trkpt>
            <trkpt lon="99.634863" lat="12.906929">
                <ele>74.158813</ele>
                <time>2009-02-22T03:57:45Z</time>
            </trkpt>
            <trkpt lon="99.635445" lat="12.907373">
                <ele>72.716919</ele>
                <time>2009-02-22T03:57:56Z</time>
            </trkpt>
            <trkpt lon="99.635609" lat="12.907451">
                <ele>70.794190</ele>
                <time>2009-02-22T03:58:00Z</time>
            </trkpt>
            <trkpt lon="99.635723" lat="12.907345">
                <ele>68.871582</ele>
                <time>2009-02-22T03:58:04Z</time>
            </trkpt>
            <trkpt lon="99.636209" lat="12.906347">
                <ele>65.987671</ele>
                <time>2009-02-22T03:58:21Z</time>
            </trkpt>
            <trkpt lon="99.636408" lat="12.905813">
                <ele>67.910278</ele>
                <time>2009-02-22T03:58:32Z</time>
            </trkpt>
            <trkpt lon="99.636562" lat="12.905380">
                <ele>70.794190</ele>
                <time>2009-02-22T03:58:50Z</time>
            </trkpt>
            <trkpt lon="99.637002" lat="12.905202">
                <ele>68.390869</ele>
                <time>2009-02-22T03:59:02Z</time>
            </trkpt>
            <trkpt lon="99.637152" lat="12.905121">
                <ele>67.429688</ele>
                <time>2009-02-22T03:59:05Z</time>
            </trkpt>
            <trkpt lon="99.637619" lat="12.904703">
                <ele>65.987671</ele>
                <time>2009-02-22T03:59:17Z</time>
            </trkpt>
            <trkpt lon="99.637706" lat="12.904649">
                <ele>65.987671</ele>
                <time>2009-02-22T03:59:19Z</time>
            </trkpt>
            <trkpt lon="99.638202" lat="12.904383">
                <ele>67.910278</ele>
                <time>2009-02-22T03:59:34Z</time>
            </trkpt>
            <trkpt lon="99.638589" lat="12.904081">
                <ele>72.236206</ele>
                <time>2009-02-22T03:59:53Z</time>
            </trkpt>
            <trkpt lon="99.638824" lat="12.903785">
                <ele>72.716919</ele>
                <time>2009-02-22T04:00:08Z</time>
            </trkpt>
            <trkpt lon="99.638949" lat="12.903412">
                <ele>73.678223</ele>
                <time>2009-02-22T04:00:18Z</time>
            </trkpt>
            <trkpt lon="99.639210" lat="12.903319">
                <ele>72.236206</ele>
                <time>2009-02-22T04:00:25Z</time>
            </trkpt>
            <trkpt lon="99.639718" lat="12.903405">
                <ele>68.871582</ele>
                <time>2009-02-22T04:00:36Z</time>
            </trkpt>
            <trkpt lon="99.639886" lat="12.903291">
                <ele>67.910278</ele>
                <time>2009-02-22T04:00:41Z</time>
            </trkpt>
            <trkpt lon="99.640131" lat="12.903239">
                <ele>66.948975</ele>
                <time>2009-02-22T04:00:47Z</time>
            </trkpt>
            <trkpt lon="99.640515" lat="12.903370">
                <ele>65.026367</ele>
                <time>2009-02-22T04:00:57Z</time>
            </trkpt>
            <trkpt lon="99.640873" lat="12.903479">
                <ele>64.065063</ele>
                <time>2009-02-22T04:01:03Z</time>
            </trkpt>
            <trkpt lon="99.641122" lat="12.903429">
                <ele>63.584351</ele>
                <time>2009-02-22T04:01:07Z</time>
            </trkpt>
            <trkpt lon="99.641495" lat="12.903187">
                <ele>61.661743</ele>
                <time>2009-02-22T04:01:16Z</time>
            </trkpt>
            <trkpt lon="99.641818" lat="12.902320">
                <ele>58.777710</ele>
                <time>2009-02-22T04:01:37Z</time>
            </trkpt>
            <trkpt lon="99.642211" lat="12.901637">
                <ele>57.816528</ele>
                <time>2009-02-22T04:01:55Z</time>
            </trkpt>
            <trkpt lon="99.642320" lat="12.901523">
                <ele>56.855103</ele>
                <time>2009-02-22T04:01:59Z</time>
            </trkpt>
            <trkpt lon="99.642560" lat="12.901431">
                <ele>55.893799</ele>
                <time>2009-02-22T04:02:04Z</time>
            </trkpt>
            <trkpt lon="99.642942" lat="12.901158">
                <ele>54.451782</ele>
                <time>2009-02-22T04:02:12Z</time>
            </trkpt>
            <trkpt lon="99.643361" lat="12.900563">
                <ele>54.932373</ele>
                <time>2009-02-22T04:02:26Z</time>
            </trkpt>
            <trkpt lon="99.643579" lat="12.900002">
                <ele>55.413086</ele>
                <time>2009-02-22T04:02:39Z</time>
            </trkpt>
            <trkpt lon="99.643774" lat="12.899783">
                <ele>56.374512</ele>
                <time>2009-02-22T04:02:52Z</time>
            </trkpt>
            <trkpt lon="99.644191" lat="12.899363">
                <ele>55.893799</ele>
                <time>2009-02-22T04:03:09Z</time>
            </trkpt>
            <trkpt lon="99.644911" lat="12.898656">
                <ele>54.451782</ele>
                <time>2009-02-22T04:03:30Z</time>
            </trkpt>
            <trkpt lon="99.645537" lat="12.898149">
                <ele>55.413086</ele>
                <time>2009-02-22T04:03:45Z</time>
            </trkpt>
            <trkpt lon="99.645795" lat="12.898205">
                <ele>55.413086</ele>
                <time>2009-02-22T04:03:52Z</time>
            </trkpt>
            <trkpt lon="99.646015" lat="12.898473">
                <ele>54.932373</ele>
                <time>2009-02-22T04:03:59Z</time>
            </trkpt>
            <trkpt lon="99.646283" lat="12.898544">
                <ele>54.932373</ele>
                <time>2009-02-22T04:04:06Z</time>
            </trkpt>
            <trkpt lon="99.646915" lat="12.898284">
                <ele>55.413086</ele>
                <time>2009-02-22T04:04:24Z</time>
            </trkpt>
            <trkpt lon="99.647359" lat="12.897816">
                <ele>55.413086</ele>
                <time>2009-02-22T04:04:39Z</time>
            </trkpt>
            <trkpt lon="99.647890" lat="12.897566">
                <ele>56.855103</ele>
                <time>2009-02-22T04:04:52Z</time>
            </trkpt>
            <trkpt lon="99.648186" lat="12.897445">
                <ele>56.855103</ele>
                <time>2009-02-22T04:05:01Z</time>
            </trkpt>
            <trkpt lon="99.648683" lat="12.897239">
                <ele>58.297119</ele>
                <time>2009-02-22T04:05:16Z</time>
            </trkpt>
            <trkpt lon="99.649100" lat="12.896950">
                <ele>56.855103</ele>
                <time>2009-02-22T04:05:28Z</time>
            </trkpt>
            <trkpt lon="99.649289" lat="12.896903">
                <ele>57.816528</ele>
                <time>2009-02-22T04:05:32Z</time>
            </trkpt>
            <trkpt lon="99.649412" lat="12.896903">
                <ele>57.335815</ele>
                <time>2009-02-22T04:05:35Z</time>
            </trkpt>
            <trkpt lon="99.649550" lat="12.897270">
                <ele>54.451782</ele>
                <time>2009-02-22T04:05:44Z</time>
            </trkpt>
            <trkpt lon="99.649598" lat="12.897480">
                <ele>53.971191</ele>
                <time>2009-02-22T04:05:49Z</time>
            </trkpt>
            <trkpt lon="99.649472" lat="12.897647">
                <ele>53.009766</ele>
                <time>2009-02-22T04:05:53Z</time>
            </trkpt>
            <trkpt lon="99.648739" lat="12.898490">
                <ele>50.606567</ele>
                <time>2009-02-22T04:06:13Z</time>
            </trkpt>
            <trkpt lon="99.648281" lat="12.899647">
                <ele>48.683960</ele>
                <time>2009-02-22T04:06:34Z</time>
            </trkpt>
            <trkpt lon="99.648179" lat="12.900084">
                <ele>51.567871</ele>
                <time>2009-02-22T04:06:45Z</time>
            </trkpt>
            <trkpt lon="99.648221" lat="12.900478">
                <ele>53.971191</ele>
                <time>2009-02-22T04:07:03Z</time>
            </trkpt>
            <trkpt lon="99.648335" lat="12.901025">
                <ele>55.413086</ele>
                <time>2009-02-22T04:07:24Z</time>
            </trkpt>
            <trkpt lon="99.648532" lat="12.901649">
                <ele>56.855103</ele>
                <time>2009-02-22T04:07:40Z</time>
            </trkpt>
            <trkpt lon="99.648719" lat="12.902652">
                <ele>54.451782</ele>
                <time>2009-02-22T04:07:59Z</time>
            </trkpt>
            <trkpt lon="99.648909" lat="12.903584">
                <ele>54.451782</ele>
                <time>2009-02-22T04:08:18Z</time>
            </trkpt>
            <trkpt lon="99.648931" lat="12.903705">
                <ele>54.932373</ele>
                <time>2009-02-22T04:08:21Z</time>
            </trkpt>
            <trkpt lon="99.648995" lat="12.904646">
                <ele>54.451782</ele>
                <time>2009-02-22T04:08:39Z</time>
            </trkpt>
            <trkpt lon="99.649013" lat="12.905492">
                <ele>56.855103</ele>
                <time>2009-02-22T04:08:57Z</time>
            </trkpt>
            <trkpt lon="99.649015" lat="12.906205">
                <ele>58.297119</ele>
                <time>2009-02-22T04:09:16Z</time>
            </trkpt>
            <trkpt lon="99.649021" lat="12.906237">
                <ele>58.297119</ele>
                <time>2009-02-22T04:09:17Z</time>
            </trkpt>
            <trkpt lon="99.649103" lat="12.906299">
                <ele>58.297119</ele>
                <time>2009-02-22T04:09:21Z</time>
            </trkpt>
            <trkpt lon="99.649221" lat="12.906309">
                <ele>58.297119</ele>
                <time>2009-02-22T04:09:33Z</time>
            </trkpt>
            <trkpt lon="99.649206" lat="12.906330">
                <ele>59.739136</ele>
                <time>2009-02-22T04:09:47Z</time>
            </trkpt>
            <trkpt lon="99.649241" lat="12.906330">
                <ele>59.739136</ele>
                <time>2009-02-22T04:30:47Z</time>
            </trkpt>
            <trkpt lon="99.649417" lat="12.906308">
                <ele>60.219727</ele>
                <time>2009-02-22T04:31:00Z</time>
            </trkpt>
            <trkpt lon="99.649910" lat="12.906300">
                <ele>58.297119</ele>
                <time>2009-02-22T04:31:15Z</time>
            </trkpt>
            <trkpt lon="99.650444" lat="12.906246">
                <ele>57.335815</ele>
                <time>2009-02-22T04:31:29Z</time>
            </trkpt>
            <trkpt lon="99.651055" lat="12.906342">
                <ele>56.374512</ele>
                <time>2009-02-22T04:31:46Z</time>
            </trkpt>
            <trkpt lon="99.651466" lat="12.906454">
                <ele>55.413086</ele>
                <time>2009-02-22T04:31:57Z</time>
            </trkpt>
            <trkpt lon="99.651603" lat="12.906529">
                <ele>55.893799</ele>
                <time>2009-02-22T04:32:01Z</time>
            </trkpt>
            <trkpt lon="99.651826" lat="12.906745">
                <ele>55.413086</ele>
                <time>2009-02-22T04:32:10Z</time>
            </trkpt>
            <trkpt lon="99.651914" lat="12.906721">
                <ele>54.451782</ele>
                <time>2009-02-22T04:32:14Z</time>
            </trkpt>
            <trkpt lon="99.652259" lat="12.906384">
                <ele>53.490479</ele>
                <time>2009-02-22T04:32:26Z</time>
            </trkpt>
            <trkpt lon="99.652422" lat="12.906071">
                <ele>53.490479</ele>
                <time>2009-02-22T04:32:32Z</time>
            </trkpt>
            <trkpt lon="99.652403" lat="12.905867">
                <ele>53.009766</ele>
                <time>2009-02-22T04:32:36Z</time>
            </trkpt>
            <trkpt lon="99.652346" lat="12.905721">
                <ele>53.009766</ele>
                <time>2009-02-22T04:32:39Z</time>
            </trkpt>
            <trkpt lon="99.652430" lat="12.905584">
                <ele>53.490479</ele>
                <time>2009-02-22T04:32:43Z</time>
            </trkpt>
            <trkpt lon="99.653224" lat="12.905179">
                <ele>54.932373</ele>
                <time>2009-02-22T04:33:02Z</time>
            </trkpt>
            <trkpt lon="99.653614" lat="12.904970">
                <ele>54.932373</ele>
                <time>2009-02-22T04:33:14Z</time>
            </trkpt>
            <trkpt lon="99.653610" lat="12.904843">
                <ele>55.413086</ele>
                <time>2009-02-22T04:33:18Z</time>
            </trkpt>
            <trkpt lon="99.653380" lat="12.904037">
                <ele>54.932373</ele>
                <time>2009-02-22T04:33:36Z</time>
            </trkpt>
            <trkpt lon="99.653130" lat="12.902834">
                <ele>53.971191</ele>
                <time>2009-02-22T04:33:59Z</time>
            </trkpt>
            <trkpt lon="99.653055" lat="12.902473">
                <ele>54.451782</ele>
                <time>2009-02-22T04:34:06Z</time>
            </trkpt>
            <trkpt lon="99.652997" lat="12.902180">
                <ele>53.490479</ele>
                <time>2009-02-22T04:34:12Z</time>
            </trkpt>
            <trkpt lon="99.652814" lat="12.901882">
                <ele>53.490479</ele>
                <time>2009-02-22T04:34:19Z</time>
            </trkpt>
            <trkpt lon="99.652814" lat="12.901752">
                <ele>53.009766</ele>
                <time>2009-02-22T04:34:23Z</time>
            </trkpt>
            <trkpt lon="99.652761" lat="12.901515">
                <ele>52.529175</ele>
                <time>2009-02-22T04:34:34Z</time>
            </trkpt>
            <trkpt lon="99.652769" lat="12.901511">
                <ele>53.009766</ele>
                <time>2009-02-22T04:34:48Z</time>
            </trkpt>
            <trkpt lon="99.652805" lat="12.901521">
                <ele>50.606567</ele>
                <time>2009-02-22T04:35:38Z</time>
            </trkpt>
            <trkpt lon="99.652794" lat="12.901540">
                <ele>52.048584</ele>
                <time>2009-02-22T04:35:55Z</time>
            </trkpt>
            <trkpt lon="99.652793" lat="12.901553">
                <ele>49.164551</ele>
                <time>2009-02-22T04:36:06Z</time>
            </trkpt>
            <trkpt lon="99.652740" lat="12.901574">
                <ele>49.164551</ele>
                <time>2009-02-22T04:36:10Z</time>
            </trkpt>
            <trkpt lon="99.652694" lat="12.901578">
                <ele>49.645264</ele>
                <time>2009-02-22T04:36:13Z</time>
            </trkpt>
            <trkpt lon="99.652524" lat="12.901236">
                <ele>50.125977</ele>
                <time>2009-02-22T04:36:32Z</time>
            </trkpt>
            <trkpt lon="99.652363" lat="12.900860">
                <ele>53.009766</ele>
                <time>2009-02-22T04:36:48Z</time>
            </trkpt>
            <trkpt lon="99.652307" lat="12.900702">
                <ele>56.374512</ele>
                <time>2009-02-22T04:36:59Z</time>
            </trkpt>
            <trkpt lon="99.652167" lat="12.900458">
                <ele>58.777710</ele>
                <time>2009-02-22T04:37:15Z</time>
            </trkpt>
            <trkpt lon="99.651957" lat="12.900029">
                <ele>57.335815</ele>
                <time>2009-02-22T04:37:30Z</time>
            </trkpt>
            <trkpt lon="99.651969" lat="12.899706">
                <ele>56.855103</ele>
                <time>2009-02-22T04:37:41Z</time>
            </trkpt>
            <trkpt lon="99.652044" lat="12.899637">
                <ele>58.297119</ele>
                <time>2009-02-22T04:37:47Z</time>
            </trkpt>
            <trkpt lon="99.652271" lat="12.899384">
                <ele>59.739136</ele>
                <time>2009-02-22T04:38:04Z</time>
            </trkpt>
            <trkpt lon="99.652505" lat="12.899104">
                <ele>63.584351</ele>
                <time>2009-02-22T04:38:22Z</time>
            </trkpt>
            <trkpt lon="99.652732" lat="12.898861">
                <ele>65.026367</ele>
                <time>2009-02-22T04:38:40Z</time>
            </trkpt>
            <trkpt lon="99.652793" lat="12.898797">
                <ele>64.545654</ele>
                <time>2009-02-22T04:38:54Z</time>
            </trkpt>
            <trkpt lon="99.652909" lat="12.898656">
                <ele>65.026367</ele>
                <time>2009-02-22T04:39:08Z</time>
            </trkpt>
            <trkpt lon="99.653285" lat="12.898278">
                <ele>62.622925</ele>
                <time>2009-02-22T04:39:22Z</time>
            </trkpt>
            <trkpt lon="99.653486" lat="12.898420">
                <ele>64.065063</ele>
                <time>2009-02-22T04:39:35Z</time>
            </trkpt>
            <trkpt lon="99.653748" lat="12.898546">
                <ele>66.468262</ele>
                <time>2009-02-22T04:39:52Z</time>
            </trkpt>
            <trkpt lon="99.653929" lat="12.898774">
                <ele>67.910278</ele>
                <time>2009-02-22T04:40:07Z</time>
            </trkpt>
            <trkpt lon="99.653854" lat="12.899202">
                <ele>70.313477</ele>
                <time>2009-02-22T04:40:24Z</time>
            </trkpt>
            <trkpt lon="99.653538" lat="12.899589">
                <ele>70.794190</ele>
                <time>2009-02-22T04:40:37Z</time>
            </trkpt>
            <trkpt lon="99.653511" lat="12.899608">
                <ele>71.755493</ele>
                <time>2009-02-22T04:40:50Z</time>
            </trkpt>
            <trkpt lon="99.653505" lat="12.899629">
                <ele>72.236206</ele>
                <time>2009-02-22T04:41:02Z</time>
            </trkpt>
            <trkpt lon="99.653584" lat="12.899796">
                <ele>68.390869</ele>
                <time>2009-02-22T04:41:09Z</time>
            </trkpt>
            <trkpt lon="99.653892" lat="12.900440">
                <ele>61.181030</ele>
                <time>2009-02-22T04:41:24Z</time>
            </trkpt>
            <trkpt lon="99.654062" lat="12.900862">
                <ele>57.816528</ele>
                <time>2009-02-22T04:41:35Z</time>
            </trkpt>
            <trkpt lon="99.653950" lat="12.900951">
                <ele>56.855103</ele>
                <time>2009-02-22T04:41:41Z</time>
            </trkpt>
            <trkpt lon="99.653747" lat="12.901045">
                <ele>53.490479</ele>
                <time>2009-02-22T04:41:54Z</time>
            </trkpt>
            <trkpt lon="99.653751" lat="12.901046">
                <ele>53.490479</ele>
                <time>2009-02-22T04:42:00Z</time>
            </trkpt>
            <trkpt lon="99.654100" lat="12.900887">
                <ele>52.529175</ele>
                <time>2009-02-22T04:42:16Z</time>
            </trkpt>
            <trkpt lon="99.654324" lat="12.900541">
                <ele>54.451782</ele>
                <time>2009-02-22T04:42:30Z</time>
            </trkpt>
            <trkpt lon="99.654220" lat="12.900231">
                <ele>53.971191</ele>
                <time>2009-02-22T04:42:42Z</time>
            </trkpt>
            <trkpt lon="99.654198" lat="12.900150">
                <ele>53.490479</ele>
                <time>2009-02-22T04:42:45Z</time>
            </trkpt>
            <trkpt lon="99.654256" lat="12.900058">
                <ele>54.451782</ele>
                <time>2009-02-22T04:42:49Z</time>
            </trkpt>
            <trkpt lon="99.654709" lat="12.899951">
                <ele>54.932373</ele>
                <time>2009-02-22T04:43:04Z</time>
            </trkpt>
            <trkpt lon="99.655022" lat="12.899945">
                <ele>54.451782</ele>
                <time>2009-02-22T04:43:13Z</time>
            </trkpt>
            <trkpt lon="99.655069" lat="12.900022">
                <ele>54.451782</ele>
                <time>2009-02-22T04:43:17Z</time>
            </trkpt>
            <trkpt lon="99.655203" lat="12.900521">
                <ele>55.413086</ele>
                <time>2009-02-22T04:43:35Z</time>
            </trkpt>
            <trkpt lon="99.655259" lat="12.900651">
                <ele>58.297119</ele>
                <time>2009-02-22T04:44:02Z</time>
            </trkpt>
            <trkpt lon="99.655463" lat="12.901228">
                <ele>54.932373</ele>
                <time>2009-02-22T04:44:20Z</time>
            </trkpt>
            <trkpt lon="99.655539" lat="12.901407">
                <ele>54.932373</ele>
                <time>2009-02-22T04:44:30Z</time>
            </trkpt>
            <trkpt lon="99.655541" lat="12.901385">
                <ele>55.893799</ele>
                <time>2009-02-22T04:44:38Z</time>
            </trkpt>
            <trkpt lon="99.655393" lat="12.900989">
                <ele>56.374512</ele>
                <time>2009-02-22T04:44:54Z</time>
            </trkpt>
            <trkpt lon="99.655175" lat="12.900372">
                <ele>54.932373</ele>
                <time>2009-02-22T04:45:14Z</time>
            </trkpt>
            <trkpt lon="99.655158" lat="12.899939">
                <ele>55.413086</ele>
                <time>2009-02-22T04:45:28Z</time>
            </trkpt>
            <trkpt lon="99.655194" lat="12.899922">
                <ele>55.413086</ele>
                <time>2009-02-22T04:45:29Z</time>
            </trkpt>
            <trkpt lon="99.656133" lat="12.899841">
                <ele>54.932373</ele>
                <time>2009-02-22T04:45:49Z</time>
            </trkpt>
            <trkpt lon="99.656708" lat="12.899655">
                <ele>54.451782</ele>
                <time>2009-02-22T04:46:03Z</time>
            </trkpt>
            <trkpt lon="99.657098" lat="12.899494">
                <ele>56.855103</ele>
                <time>2009-02-22T04:46:18Z</time>
            </trkpt>
            <trkpt lon="99.657593" lat="12.899272">
                <ele>57.816528</ele>
                <time>2009-02-22T04:46:35Z</time>
            </trkpt>
            <trkpt lon="99.658167" lat="12.898930">
                <ele>58.777710</ele>
                <time>2009-02-22T04:46:54Z</time>
            </trkpt>
            <trkpt lon="99.658106" lat="12.898517">
                <ele>60.219727</ele>
                <time>2009-02-22T04:47:06Z</time>
            </trkpt>
            <trkpt lon="99.657682" lat="12.897872">
                <ele>60.219727</ele>
                <time>2009-02-22T04:47:25Z</time>
            </trkpt>
            <trkpt lon="99.657339" lat="12.897099">
                <ele>59.739136</ele>
                <time>2009-02-22T04:47:42Z</time>
            </trkpt>
            <trkpt lon="99.657089" lat="12.896399">
                <ele>59.258423</ele>
                <time>2009-02-22T04:47:55Z</time>
            </trkpt>
            <trkpt lon="99.657122" lat="12.896159">
                <ele>58.777710</ele>
                <time>2009-02-22T04:47:59Z</time>
            </trkpt>
            <trkpt lon="99.657639" lat="12.894725">
                <ele>56.855103</ele>
                <time>2009-02-22T04:48:26Z</time>
            </trkpt>
            <trkpt lon="99.657663" lat="12.894025">
                <ele>55.893799</ele>
                <time>2009-02-22T04:48:39Z</time>
            </trkpt>
            <trkpt lon="99.657576" lat="12.892894">
                <ele>56.374512</ele>
                <time>2009-02-22T04:48:56Z</time>
            </trkpt>
            <trkpt lon="99.657586" lat="12.892839">
                <ele>56.374512</ele>
                <time>2009-02-22T04:48:57Z</time>
            </trkpt>
            <trkpt lon="99.657882" lat="12.892486">
                <ele>55.893799</ele>
                <time>2009-02-22T04:49:06Z</time>
            </trkpt>
            <trkpt lon="99.658853" lat="12.891974">
                <ele>52.529175</ele>
                <time>2009-02-22T04:49:25Z</time>
            </trkpt>
            <trkpt lon="99.659141" lat="12.891842">
                <ele>50.125977</ele>
                <time>2009-02-22T04:49:31Z</time>
            </trkpt>
            <trkpt lon="99.659262" lat="12.891955">
                <ele>49.645264</ele>
                <time>2009-02-22T04:49:35Z</time>
            </trkpt>
            <trkpt lon="99.659639" lat="12.892522">
                <ele>51.087158</ele>
                <time>2009-02-22T04:49:51Z</time>
            </trkpt>
            <trkpt lon="99.659595" lat="12.892717">
                <ele>52.529175</ele>
                <time>2009-02-22T04:49:56Z</time>
            </trkpt>
            <trkpt lon="99.659322" lat="12.893181">
                <ele>55.413086</ele>
                <time>2009-02-22T04:50:14Z</time>
            </trkpt>
            <trkpt lon="99.659245" lat="12.893840">
                <ele>57.335815</ele>
                <time>2009-02-22T04:50:33Z</time>
            </trkpt>
            <trkpt lon="99.659620" lat="12.894275">
                <ele>54.932373</ele>
                <time>2009-02-22T04:50:47Z</time>
            </trkpt>
            <trkpt lon="99.659980" lat="12.894512">
                <ele>52.529175</ele>
                <time>2009-02-22T04:50:55Z</time>
            </trkpt>
            <trkpt lon="99.660123" lat="12.894685">
                <ele>51.567871</ele>
                <time>2009-02-22T04:50:59Z</time>
            </trkpt>
            <trkpt lon="99.660293" lat="12.895016">
                <ele>51.087158</ele>
                <time>2009-02-22T04:51:12Z</time>
            </trkpt>
            <trkpt lon="99.660344" lat="12.895024">
                <ele>52.048584</ele>
                <time>2009-02-22T04:51:39Z</time>
            </trkpt>
            <trkpt lon="99.660283" lat="12.894930">
                <ele>52.048584</ele>
                <time>2009-02-22T04:51:45Z</time>
            </trkpt>
            <trkpt lon="99.659939" lat="12.894450">
                <ele>54.451782</ele>
                <time>2009-02-22T04:52:05Z</time>
            </trkpt>
            <trkpt lon="99.659695" lat="12.894309">
                <ele>54.932373</ele>
                <time>2009-02-22T04:52:22Z</time>
            </trkpt>
            <trkpt lon="99.659633" lat="12.894300">
                <ele>55.413086</ele>
                <time>2009-02-22T04:52:26Z</time>
            </trkpt>
            <trkpt lon="99.659579" lat="12.894327">
                <ele>55.413086</ele>
                <time>2009-02-22T04:52:44Z</time>
            </trkpt>
            <trkpt lon="99.659303" lat="12.894358">
                <ele>54.932373</ele>
                <time>2009-02-22T04:52:59Z</time>
            </trkpt>
            <trkpt lon="99.658978" lat="12.894350">
                <ele>56.855103</ele>
                <time>2009-02-22T04:53:13Z</time>
            </trkpt>
            <trkpt lon="99.658641" lat="12.894295">
                <ele>59.258423</ele>
                <time>2009-02-22T04:53:29Z</time>
            </trkpt>
            <trkpt lon="99.658597" lat="12.894299">
                <ele>59.258423</ele>
                <time>2009-02-22T04:53:33Z</time>
            </trkpt>
            <trkpt lon="99.658510" lat="12.894293">
                <ele>59.258423</ele>
                <time>2009-02-22T04:53:39Z</time>
            </trkpt>
            <trkpt lon="99.658451" lat="12.894289">
                <ele>59.258423</ele>
                <time>2009-02-22T04:53:42Z</time>
            </trkpt>
            <trkpt lon="99.658393" lat="12.894342">
                <ele>59.739136</ele>
                <time>2009-02-22T04:53:46Z</time>
            </trkpt>
            <trkpt lon="99.658395" lat="12.894558">
                <ele>60.219727</ele>
                <time>2009-02-22T04:53:59Z</time>
            </trkpt>
            <trkpt lon="99.658423" lat="12.894650">
                <ele>60.700317</ele>
                <time>2009-02-22T04:54:12Z</time>
            </trkpt>
            <trkpt lon="99.658457" lat="12.894732">
                <ele>65.026367</ele>
                <time>2009-02-22T04:54:52Z</time>
            </trkpt>
            <trkpt lon="99.658383" lat="12.895000">
                <ele>65.026367</ele>
                <time>2009-02-22T04:55:06Z</time>
            </trkpt>
            <trkpt lon="99.658336" lat="12.895445">
                <ele>64.545654</ele>
                <time>2009-02-22T04:55:21Z</time>
            </trkpt>
            <trkpt lon="99.658329" lat="12.895608">
                <ele>65.026367</ele>
                <time>2009-02-22T04:55:27Z</time>
            </trkpt>
            <trkpt lon="99.658347" lat="12.895654">
                <ele>64.545654</ele>
                <time>2009-02-22T04:55:39Z</time>
            </trkpt>
            <trkpt lon="99.658345" lat="12.895680">
                <ele>64.545654</ele>
                <time>2009-02-22T04:55:44Z</time>
            </trkpt>
            <trkpt lon="99.658283" lat="12.895832">
                <ele>63.584351</ele>
                <time>2009-02-22T04:55:52Z</time>
            </trkpt>
            <trkpt lon="99.658344" lat="12.896393">
                <ele>65.026367</ele>
                <time>2009-02-22T04:56:12Z</time>
            </trkpt>
            <trkpt lon="99.658847" lat="12.896987">
                <ele>62.622925</ele>
                <time>2009-02-22T04:56:26Z</time>
            </trkpt>
            <trkpt lon="99.659508" lat="12.897875">
                <ele>61.661743</ele>
                <time>2009-02-22T04:56:44Z</time>
            </trkpt>
            <trkpt lon="99.659696" lat="12.898155">
                <ele>59.739136</ele>
                <time>2009-02-22T04:56:50Z</time>
            </trkpt>
            <trkpt lon="99.659868" lat="12.898559">
                <ele>59.739136</ele>
                <time>2009-02-22T04:57:01Z</time>
            </trkpt>
            <trkpt lon="99.659816" lat="12.898744">
                <ele>59.739136</ele>
                <time>2009-02-22T04:57:06Z</time>
            </trkpt>
            <trkpt lon="99.659555" lat="12.898840">
                <ele>59.258423</ele>
                <time>2009-02-22T04:57:13Z</time>
            </trkpt>
            <trkpt lon="99.659505" lat="12.898875">
                <ele>59.258423</ele>
                <time>2009-02-22T04:57:15Z</time>
            </trkpt>
            <trkpt lon="99.659513" lat="12.899190">
                <ele>62.622925</ele>
                <time>2009-02-22T04:57:29Z</time>
            </trkpt>
            <trkpt lon="99.659655" lat="12.899549">
                <ele>60.700317</ele>
                <time>2009-02-22T04:57:46Z</time>
            </trkpt>
            <trkpt lon="99.659775" lat="12.899896">
                <ele>60.219727</ele>
                <time>2009-02-22T04:57:58Z</time>
            </trkpt>
            <trkpt lon="99.659815" lat="12.899927">
                <ele>60.700317</ele>
                <time>2009-02-22T04:58:09Z</time>
            </trkpt>
            <trkpt lon="99.659811" lat="12.899933">
                <ele>61.661743</ele>
                <time>2009-02-22T04:58:18Z</time>
            </trkpt>
            <trkpt lon="99.659931" lat="12.900193">
                <ele>61.661743</ele>
                <time>2009-02-22T04:58:31Z</time>
            </trkpt>
            <trkpt lon="99.659944" lat="12.900216">
                <ele>61.661743</ele>
                <time>2009-02-22T04:58:32Z</time>
            </trkpt>
            <trkpt lon="99.660040" lat="12.900635">
                <ele>61.661743</ele>
                <time>2009-02-22T04:58:45Z</time>
            </trkpt>
            <trkpt lon="99.660282" lat="12.901366">
                <ele>61.661743</ele>
                <time>2009-02-22T04:59:05Z</time>
            </trkpt>
            <trkpt lon="99.660452" lat="12.901848">
                <ele>64.065063</ele>
                <time>2009-02-22T04:59:21Z</time>
            </trkpt>
            <trkpt lon="99.660607" lat="12.902298">
                <ele>61.661743</ele>
                <time>2009-02-22T04:59:35Z</time>
            </trkpt>
            <trkpt lon="99.660726" lat="12.902677">
                <ele>64.545654</ele>
                <time>2009-02-22T04:59:51Z</time>
            </trkpt>
            <trkpt lon="99.660739" lat="12.903050">
                <ele>68.390869</ele>
                <time>2009-02-22T05:00:09Z</time>
            </trkpt>
            <trkpt lon="99.660474" lat="12.903459">
                <ele>72.236206</ele>
                <time>2009-02-22T05:00:25Z</time>
            </trkpt>
            <trkpt lon="99.660237" lat="12.903802">
                <ele>76.562134</ele>
                <time>2009-02-22T05:00:41Z</time>
            </trkpt>
            <trkpt lon="99.660037" lat="12.904162">
                <ele>78.965454</ele>
                <time>2009-02-22T05:01:00Z</time>
            </trkpt>
            <trkpt lon="99.659800" lat="12.904606">
                <ele>77.523438</ele>
                <time>2009-02-22T05:01:16Z</time>
            </trkpt>
            <trkpt lon="99.659680" lat="12.904824">
                <ele>76.081421</ele>
                <time>2009-02-22T05:01:22Z</time>
            </trkpt>
            <trkpt lon="99.659549" lat="12.904969">
                <ele>75.600830</ele>
                <time>2009-02-22T05:01:26Z</time>
            </trkpt>
            <trkpt lon="99.659380" lat="12.905195">
                <ele>74.639526</ele>
                <time>2009-02-22T05:01:32Z</time>
            </trkpt>
            <trkpt lon="99.659350" lat="12.905374">
                <ele>73.678223</ele>
                <time>2009-02-22T05:01:36Z</time>
            </trkpt>
            <trkpt lon="99.659286" lat="12.905636">
                <ele>72.236206</ele>
                <time>2009-02-22T05:01:42Z</time>
            </trkpt>
            <trkpt lon="99.659134" lat="12.905793">
                <ele>70.794190</ele>
                <time>2009-02-22T05:01:48Z</time>
            </trkpt>
            <trkpt lon="99.658867" lat="12.905793">
                <ele>70.313477</ele>
                <time>2009-02-22T05:02:03Z</time>
            </trkpt>
            <trkpt lon="99.658831" lat="12.905816">
                <ele>71.274902</ele>
                <time>2009-02-22T05:02:14Z</time>
            </trkpt>
            <trkpt lon="99.658811" lat="12.905818">
                <ele>71.755493</ele>
                <time>2009-02-22T05:02:50Z</time>
            </trkpt>
            <trkpt lon="99.658706" lat="12.905863">
                <ele>72.236206</ele>
                <time>2009-02-22T05:03:04Z</time>
            </trkpt>
            <trkpt lon="99.658701" lat="12.905875">
                <ele>71.755493</ele>
                <time>2009-02-22T05:03:06Z</time>
            </trkpt>
            <trkpt lon="99.658687" lat="12.905941">
                <ele>70.794190</ele>
                <time>2009-02-22T05:03:10Z</time>
            </trkpt>
            <trkpt lon="99.658684" lat="12.906181">
                <ele>67.910278</ele>
                <time>2009-02-22T05:03:25Z</time>
            </trkpt>
            <trkpt lon="99.658681" lat="12.906362">
                <ele>64.545654</ele>
                <time>2009-02-22T05:03:42Z</time>
            </trkpt>
            <trkpt lon="99.658688" lat="12.906364">
                <ele>65.987671</ele>
                <time>2009-02-22T05:04:19Z</time>
            </trkpt>
            <trkpt lon="99.658669" lat="12.906471">
                <ele>66.948975</ele>
                <time>2009-02-22T05:04:51Z</time>
            </trkpt>
            <trkpt lon="99.658676" lat="12.906574">
                <ele>67.910278</ele>
                <time>2009-02-22T05:05:05Z</time>
            </trkpt>
            <trkpt lon="99.658756" lat="12.906647">
                <ele>70.313477</ele>
                <time>2009-02-22T05:05:19Z</time>
            </trkpt>
            <trkpt lon="99.658870" lat="12.906746">
                <ele>71.755493</ele>
                <time>2009-02-22T05:05:38Z</time>
            </trkpt>
            <trkpt lon="99.658980" lat="12.906827">
                <ele>71.755493</ele>
                <time>2009-02-22T05:05:55Z</time>
            </trkpt>
            <trkpt lon="99.659263" lat="12.906992">
                <ele>70.794190</ele>
                <time>2009-02-22T05:06:10Z</time>
            </trkpt>
            <trkpt lon="99.659417" lat="12.907120">
                <ele>69.352295</ele>
                <time>2009-02-22T05:06:20Z</time>
            </trkpt>
            <trkpt lon="99.659576" lat="12.907170">
                <ele>70.794190</ele>
                <time>2009-02-22T05:06:32Z</time>
            </trkpt>
            <trkpt lon="99.659605" lat="12.907192">
                <ele>70.794190</ele>
                <time>2009-02-22T05:06:34Z</time>
            </trkpt>
            <trkpt lon="99.659659" lat="12.907229">
                <ele>71.274902</ele>
                <time>2009-02-22T05:06:46Z</time>
            </trkpt>
            <trkpt lon="99.659856" lat="12.907306">
                <ele>70.794190</ele>
                <time>2009-02-22T05:07:03Z</time>
            </trkpt>
            <trkpt lon="99.660318" lat="12.907450">
                <ele>70.313477</ele>
                <time>2009-02-22T05:07:19Z</time>
            </trkpt>
            <trkpt lon="99.660567" lat="12.907643">
                <ele>71.755493</ele>
                <time>2009-02-22T05:07:30Z</time>
            </trkpt>
            <trkpt lon="99.660913" lat="12.907913">
                <ele>73.678223</ele>
                <time>2009-02-22T05:07:48Z</time>
            </trkpt>
            <trkpt lon="99.661005" lat="12.907939">
                <ele>76.081421</ele>
                <time>2009-02-22T05:07:58Z</time>
            </trkpt>
            <trkpt lon="99.661063" lat="12.907951">
                <ele>76.562134</ele>
                <time>2009-02-22T05:08:24Z</time>
            </trkpt>
            <trkpt lon="99.661115" lat="12.907946">
                <ele>77.042847</ele>
                <time>2009-02-22T05:08:30Z</time>
            </trkpt>
            <trkpt lon="99.661229" lat="12.907945">
                <ele>77.523438</ele>
                <time>2009-02-22T05:08:36Z</time>
            </trkpt>
            <trkpt lon="99.661478" lat="12.907854">
                <ele>78.484741</ele>
                <time>2009-02-22T05:08:52Z</time>
            </trkpt>
            <trkpt lon="99.661514" lat="12.907905">
                <ele>78.484741</ele>
                <time>2009-02-22T05:09:08Z</time>
            </trkpt>
            <trkpt lon="99.661589" lat="12.907867">
                <ele>76.081421</ele>
                <time>2009-02-22T05:09:24Z</time>
            </trkpt>
            <trkpt lon="99.661596" lat="12.907852">
                <ele>75.600830</ele>
                <time>2009-02-22T05:09:26Z</time>
            </trkpt>
            <trkpt lon="99.661721" lat="12.907737">
                <ele>77.523438</ele>
                <time>2009-02-22T05:09:44Z</time>
            </trkpt>
            <trkpt lon="99.661744" lat="12.907709">
                <ele>78.965454</ele>
                <time>2009-02-22T05:09:56Z</time>
            </trkpt>
            <trkpt lon="99.661851" lat="12.907676">
                <ele>80.888184</ele>
                <time>2009-02-22T05:10:12Z</time>
            </trkpt>
            <trkpt lon="99.661871" lat="12.907674">
                <ele>80.407471</ele>
                <time>2009-02-22T05:10:23Z</time>
            </trkpt>
            <trkpt lon="99.662159" lat="12.907589">
                <ele>79.926636</ele>
                <time>2009-02-22T05:10:36Z</time>
            </trkpt>
            <trkpt lon="99.662322" lat="12.907504">
                <ele>80.407471</ele>
                <time>2009-02-22T05:10:48Z</time>
            </trkpt>
            <trkpt lon="99.662502" lat="12.907433">
                <ele>79.926636</ele>
                <time>2009-02-22T05:11:01Z</time>
            </trkpt>
            <trkpt lon="99.662644" lat="12.907151">
                <ele>81.368774</ele>
                <time>2009-02-22T05:11:13Z</time>
            </trkpt>
            <trkpt lon="99.662922" lat="12.906869">
                <ele>81.849365</ele>
                <time>2009-02-22T05:11:26Z</time>
            </trkpt>
            <trkpt lon="99.663153" lat="12.906489">
                <ele>79.926636</ele>
                <time>2009-02-22T05:11:39Z</time>
            </trkpt>
            <trkpt lon="99.663255" lat="12.906197">
                <ele>79.926636</ele>
                <time>2009-02-22T05:11:49Z</time>
            </trkpt>
            <trkpt lon="99.663360" lat="12.906248">
                <ele>79.446045</ele>
                <time>2009-02-22T05:11:55Z</time>
            </trkpt>
            <trkpt lon="99.663588" lat="12.906214">
                <ele>78.965454</ele>
                <time>2009-02-22T05:12:10Z</time>
            </trkpt>
            <trkpt lon="99.663826" lat="12.906028">
                <ele>81.849365</ele>
                <time>2009-02-22T05:12:24Z</time>
            </trkpt>
            <trkpt lon="99.664004" lat="12.905705">
                <ele>80.407471</ele>
                <time>2009-02-22T05:12:34Z</time>
            </trkpt>
            <trkpt lon="99.664119" lat="12.905648">
                <ele>79.926636</ele>
                <time>2009-02-22T05:12:38Z</time>
            </trkpt>
            <trkpt lon="99.664567" lat="12.905376">
                <ele>77.042847</ele>
                <time>2009-02-22T05:12:50Z</time>
            </trkpt>
            <trkpt lon="99.664671" lat="12.905296">
                <ele>76.562134</ele>
                <time>2009-02-22T05:12:53Z</time>
            </trkpt>
            <trkpt lon="99.664799" lat="12.905209">
                <ele>76.562134</ele>
                <time>2009-02-22T05:12:59Z</time>
            </trkpt>
            <trkpt lon="99.665113" lat="12.904982">
                <ele>74.639526</ele>
                <time>2009-02-22T05:13:11Z</time>
            </trkpt>
            <trkpt lon="99.665448" lat="12.904793">
                <ele>71.755493</ele>
                <time>2009-02-22T05:13:23Z</time>
            </trkpt>
            <trkpt lon="99.665744" lat="12.904511">
                <ele>70.313477</ele>
                <time>2009-02-22T05:13:36Z</time>
            </trkpt>
            <trkpt lon="99.665897" lat="12.904428">
                <ele>69.352295</ele>
                <time>2009-02-22T05:13:50Z</time>
            </trkpt>
            <trkpt lon="99.665971" lat="12.904397">
                <ele>72.716919</ele>
                <time>2009-02-22T05:14:05Z</time>
            </trkpt>
            <trkpt lon="99.666077" lat="12.904365">
                <ele>73.678223</ele>
                <time>2009-02-22T05:14:20Z</time>
            </trkpt>
            <trkpt lon="99.666273" lat="12.904309">
                <ele>73.678223</ele>
                <time>2009-02-22T05:14:33Z</time>
            </trkpt>
            <trkpt lon="99.666407" lat="12.904267">
                <ele>75.600830</ele>
                <time>2009-02-22T05:14:44Z</time>
            </trkpt>
            <trkpt lon="99.666451" lat="12.904274">
                <ele>75.120239</ele>
                <time>2009-02-22T05:14:51Z</time>
            </trkpt>
            <trkpt lon="99.666499" lat="12.904330">
                <ele>74.639526</ele>
                <time>2009-02-22T05:14:57Z</time>
            </trkpt>
            <trkpt lon="99.666712" lat="12.904606">
                <ele>72.716919</ele>
                <time>2009-02-22T05:15:11Z</time>
            </trkpt>
            <trkpt lon="99.667064" lat="12.905029">
                <ele>70.313477</ele>
                <time>2009-02-22T05:15:28Z</time>
            </trkpt>
            <trkpt lon="99.667595" lat="12.905536">
                <ele>70.313477</ele>
                <time>2009-02-22T05:15:48Z</time>
            </trkpt>
            <trkpt lon="99.668343" lat="12.906160">
                <ele>69.832886</ele>
                <time>2009-02-22T05:16:13Z</time>
            </trkpt>
            <trkpt lon="99.668787" lat="12.906533">
                <ele>73.197632</ele>
                <time>2009-02-22T05:16:31Z</time>
            </trkpt>
            <trkpt lon="99.669187" lat="12.906825">
                <ele>76.081421</ele>
                <time>2009-02-22T05:16:47Z</time>
            </trkpt>
            <trkpt lon="99.669738" lat="12.907109">
                <ele>80.888184</ele>
                <time>2009-02-22T05:17:07Z</time>
            </trkpt>
            <trkpt lon="99.670618" lat="12.907452">
                <ele>83.771973</ele>
                <time>2009-02-22T05:17:33Z</time>
            </trkpt>
            <trkpt lon="99.671318" lat="12.907866">
                <ele>85.694580</ele>
                <time>2009-02-22T05:17:53Z</time>
            </trkpt>
            <trkpt lon="99.671874" lat="12.908582">
                <ele>85.213989</ele>
                <time>2009-02-22T05:18:13Z</time>
            </trkpt>
            <trkpt lon="99.672404" lat="12.909465">
                <ele>79.926636</ele>
                <time>2009-02-22T05:18:29Z</time>
            </trkpt>
            <trkpt lon="99.672466" lat="12.909560">
                <ele>78.965454</ele>
                <time>2009-02-22T05:18:31Z</time>
            </trkpt>
            <trkpt lon="99.672593" lat="12.909617">
                <ele>78.004028</ele>
                <time>2009-02-22T05:18:35Z</time>
            </trkpt>
            <trkpt lon="99.672683" lat="12.909619">
                <ele>78.004028</ele>
                <time>2009-02-22T05:18:37Z</time>
            </trkpt>
            <trkpt lon="99.672884" lat="12.909555">
                <ele>77.523438</ele>
                <time>2009-02-22T05:18:41Z</time>
            </trkpt>
            <trkpt lon="99.674077" lat="12.909121">
                <ele>80.888184</ele>
                <time>2009-02-22T05:19:04Z</time>
            </trkpt>
            <trkpt lon="99.674976" lat="12.908875">
                <ele>85.213989</ele>
                <time>2009-02-22T05:19:25Z</time>
            </trkpt>
            <trkpt lon="99.675730" lat="12.908656">
                <ele>89.539917</ele>
                <time>2009-02-22T05:19:44Z</time>
            </trkpt>
            <trkpt lon="99.676247" lat="12.908489">
                <ele>91.943237</ele>
                <time>2009-02-22T05:20:01Z</time>
            </trkpt>
            <trkpt lon="99.676779" lat="12.908292">
                <ele>93.385132</ele>
                <time>2009-02-22T05:20:20Z</time>
            </trkpt>
            <trkpt lon="99.677325" lat="12.908110">
                <ele>96.269287</ele>
                <time>2009-02-22T05:20:40Z</time>
            </trkpt>
            <trkpt lon="99.677975" lat="12.907991">
                <ele>95.788452</ele>
                <time>2009-02-22T05:21:00Z</time>
            </trkpt>
            <trkpt lon="99.678617" lat="12.907930">
                <ele>96.749878</ele>
                <time>2009-02-22T05:21:17Z</time>
            </trkpt>
            <trkpt lon="99.679190" lat="12.907951">
                <ele>98.672485</ele>
                <time>2009-02-22T05:21:33Z</time>
            </trkpt>
            <trkpt lon="99.679839" lat="12.908174">
                <ele>104.440430</ele>
                <time>2009-02-22T05:21:54Z</time>
            </trkpt>
            <trkpt lon="99.680339" lat="12.908409">
                <ele>108.285645</ele>
                <time>2009-02-22T05:22:15Z</time>
            </trkpt>
            <trkpt lon="99.680705" lat="12.908598">
                <ele>110.208252</ele>
                <time>2009-02-22T05:22:29Z</time>
            </trkpt>
            <trkpt lon="99.680871" lat="12.908619">
                <ele>110.688843</ele>
                <time>2009-02-22T05:22:34Z</time>
            </trkpt>
            <trkpt lon="99.681414" lat="12.908665">
                <ele>110.688843</ele>
                <time>2009-02-22T05:22:51Z</time>
            </trkpt>
            <trkpt lon="99.681502" lat="12.908588">
                <ele>110.688843</ele>
                <time>2009-02-22T05:22:54Z</time>
            </trkpt>
            <trkpt lon="99.681883" lat="12.908059">
                <ele>109.727661</ele>
                <time>2009-02-22T05:23:09Z</time>
            </trkpt>
            <trkpt lon="99.682057" lat="12.907888">
                <ele>110.208252</ele>
                <time>2009-02-22T05:23:14Z</time>
            </trkpt>
            <trkpt lon="99.682940" lat="12.907542">
                <ele>107.324341</ele>
                <time>2009-02-22T05:23:26Z</time>
            </trkpt>
            <trkpt lon="99.683088" lat="12.907446">
                <ele>106.843628</ele>
                <time>2009-02-22T05:23:28Z</time>
            </trkpt>
            <trkpt lon="99.683444" lat="12.907050">
                <ele>105.882446</ele>
                <time>2009-02-22T05:23:35Z</time>
            </trkpt>
            <trkpt lon="99.683587" lat="12.906814">
                <ele>105.401733</ele>
                <time>2009-02-22T05:23:39Z</time>
            </trkpt>
            <trkpt lon="99.683682" lat="12.905840">
                <ele>102.037109</ele>
                <time>2009-02-22T05:23:54Z</time>
            </trkpt>
            <trkpt lon="99.683582" lat="12.905474">
                <ele>101.075684</ele>
                <time>2009-02-22T05:24:00Z</time>
            </trkpt>
            <trkpt lon="99.683072" lat="12.904616">
                <ele>100.114502</ele>
                <time>2009-02-22T05:24:18Z</time>
            </trkpt>
            <trkpt lon="99.682890" lat="12.904057">
                <ele>99.633789</ele>
                <time>2009-02-22T05:24:30Z</time>
            </trkpt>
            <trkpt lon="99.682969" lat="12.903131">
                <ele>99.153076</ele>
                <time>2009-02-22T05:24:47Z</time>
            </trkpt>
            <trkpt lon="99.682856" lat="12.902959">
                <ele>100.114502</ele>
                <time>2009-02-22T05:24:54Z</time>
            </trkpt>
            <trkpt lon="99.682688" lat="12.902894">
                <ele>99.633789</ele>
                <time>2009-02-22T05:24:58Z</time>
            </trkpt>
            <trkpt lon="99.681981" lat="12.902336">
                <ele>100.114502</ele>
                <time>2009-02-22T05:25:17Z</time>
            </trkpt>
            <trkpt lon="99.681545" lat="12.901881">
                <ele>100.595093</ele>
                <time>2009-02-22T05:25:30Z</time>
            </trkpt>
            <trkpt lon="99.681487" lat="12.901756">
                <ele>101.556397</ele>
                <time>2009-02-22T05:25:33Z</time>
            </trkpt>
            <trkpt lon="99.681332" lat="12.901286">
                <ele>102.517700</ele>
                <time>2009-02-22T05:25:45Z</time>
            </trkpt>
            <trkpt lon="99.681178" lat="12.901130">
                <ele>102.517700</ele>
                <time>2009-02-22T05:25:50Z</time>
            </trkpt>
            <trkpt lon="99.681128" lat="12.900831">
                <ele>102.517700</ele>
                <time>2009-02-22T05:25:57Z</time>
            </trkpt>
            <trkpt lon="99.681183" lat="12.900682">
                <ele>102.517700</ele>
                <time>2009-02-22T05:26:00Z</time>
            </trkpt>
            <trkpt lon="99.681294" lat="12.900441">
                <ele>102.517700</ele>
                <time>2009-02-22T05:26:05Z</time>
            </trkpt>
            <trkpt lon="99.681175" lat="12.900259">
                <ele>102.037109</ele>
                <time>2009-02-22T05:26:11Z</time>
            </trkpt>
            <trkpt lon="99.680579" lat="12.900061">
                <ele>100.595093</ele>
                <time>2009-02-22T05:26:27Z</time>
            </trkpt>
            <trkpt lon="99.680639" lat="12.899984">
                <ele>101.075684</ele>
                <time>2009-02-22T05:26:37Z</time>
            </trkpt>
            <trkpt lon="99.680644" lat="12.899994">
                <ele>101.075684</ele>
                <time>2009-02-22T05:26:48Z</time>
            </trkpt>
            <trkpt lon="99.680503" lat="12.899993">
                <ele>100.595093</ele>
                <time>2009-02-22T05:26:56Z</time>
            </trkpt>
            <trkpt lon="99.680423" lat="12.899843">
                <ele>101.556397</ele>
                <time>2009-02-22T05:27:08Z</time>
            </trkpt>
            <trkpt lon="99.680421" lat="12.899844">
                <ele>100.114502</ele>
                <time>2009-02-22T05:27:12Z</time>
            </trkpt>
        </trkseg>
    </trk>
</gpx>